sensor_id;sensor_type;location;lat;lon;timestamp;P1;durP1;ratioP1;P2;durP2;ratioP2
10882;SDS011;5494;51.796;10.952;2022-11-20T00:01:37;5.15;;;3.33;;
10882;SDS011;5494;51.796;10.952;2022-11-20T00:04:06;6.07;;;3.65;;
10882;SDS011;5494;51.796;10.952;2022-11-20T00:06:36;7.70;;;3.70;;
10882;SDS011;5494;51.796;10.952;2022-11-20T00:09:04;6.68;;;3.42;;
10882;SDS011;5494;51.796;10.952;2022-11-20T00:11:33;5.35;;;3.25;;
10882;SDS011;5494;51.796;10.952;2022-11-20T00:14:02;4.97;;;2.95;;
10882;SDS011;5494;51.796;10.952;2022-11-20T00:16:31;5.07;;;3.33;;
10882;SDS011;5494;51.796;10.952;2022-11-20T00:19:02;5.00;;;3.38;;
10882;SDS011;5494;51.796;10.952;2022-11-20T00:21:30;7.57;;;3.13;;
10882;SDS011;5494;51.796;10.952;2022-11-20T00:23:59;6.13;;;3.40;;
10882;SDS011;5494;51.796;10.952;2022-11-20T00:26:28;4.25;;;2.65;;
10882;SDS011;5494;51.796;10.952;2022-11-20T00:28:57;6.45;;;3.67;;
10882;SDS011;5494;51.796;10.952;2022-11-20T00:31:28;5.93;;;3.30;;
10882;SDS011;5494;51.796;10.952;2022-11-20T00:33:59;5.10;;;3.00;;
10882;SDS011;5494;51.796;10.952;2022-11-20T00:36:31;4.10;;;2.85;;
10882;SDS011;5494;51.796;10.952;2022-11-20T00:39:02;7.90;;;3.75;;
10882;SDS011;5494;51.796;10.952;2022-11-20T00:41:30;5.20;;;2.80;;
10882;SDS011;5494;51.796;10.952;2022-11-20T00:43:59;7.25;;;3.30;;
10882;SDS011;5494;51.796;10.952;2022-11-20T00:46:27;8.05;;;3.78;;
10882;SDS011;5494;51.796;10.952;2022-11-20T00:48:56;7.28;;;3.90;;
10882;SDS011;5494;51.796;10.952;2022-11-20T00:51:26;8.23;;;4.45;;
10882;SDS011;5494;51.796;10.952;2022-11-20T00:53:55;8.15;;;4.22;;
10882;SDS011;5494;51.796;10.952;2022-11-20T00:56:26;7.32;;;4.15;;
10882;SDS011;5494;51.796;10.952;2022-11-20T00:58:55;10.00;;;4.20;;
10882;SDS011;5494;51.796;10.952;2022-11-20T01:01:26;6.63;;;3.72;;
10882;SDS011;5494;51.796;10.952;2022-11-20T01:03:57;5.57;;;2.90;;
10882;SDS011;5494;51.796;10.952;2022-11-20T01:06:29;5.18;;;3.15;;
10882;SDS011;5494;51.796;10.952;2022-11-20T01:09:00;3.65;;;2.60;;
10882;SDS011;5494;51.796;10.952;2022-11-20T01:11:33;2.80;;;2.20;;
10882;SDS011;5494;51.796;10.952;2022-11-20T01:14:05;6.50;;;2.92;;
10882;SDS011;5494;51.796;10.952;2022-11-20T01:16:39;4.75;;;2.35;;
10882;SDS011;5494;51.796;10.952;2022-11-20T01:19:11;5.13;;;2.70;;
10882;SDS011;5494;51.796;10.952;2022-11-20T01:21:46;4.28;;;2.28;;
10882;SDS011;5494;51.796;10.952;2022-11-20T01:24:18;3.85;;;2.22;;
10882;SDS011;5494;51.796;10.952;2022-11-20T01:26:49;5.55;;;2.60;;
10882;SDS011;5494;51.796;10.952;2022-11-20T01:29:19;6.50;;;3.60;;
10882;SDS011;5494;51.796;10.952;2022-11-20T01:31:50;14.27;;;6.20;;
10882;SDS011;5494;51.796;10.952;2022-11-20T01:34:20;18.48;;;7.50;;
10882;SDS011;5494;51.796;10.952;2022-11-20T01:36:51;11.60;;;6.80;;
10882;SDS011;5494;51.796;10.952;2022-11-20T01:39:21;9.82;;;5.07;;
10882;SDS011;5494;51.796;10.952;2022-11-20T01:41:53;7.90;;;3.90;;
10882;SDS011;5494;51.796;10.952;2022-11-20T01:44:45;9.02;;;4.13;;
10882;SDS011;5494;51.796;10.952;2022-11-20T01:47:24;7.65;;;3.50;;
10882;SDS011;5494;51.796;10.952;2022-11-20T01:50:01;5.35;;;3.15;;
10882;SDS011;5494;51.796;10.952;2022-11-20T01:52:39;3.75;;;2.15;;
10882;SDS011;5494;51.796;10.952;2022-11-20T01:55:17;3.35;;;2.30;;
10882;SDS011;5494;51.796;10.952;2022-11-20T01:57:52;6.80;;;2.70;;
10882;SDS011;5494;51.796;10.952;2022-11-20T02:00:22;4.80;;;2.25;;
10882;SDS011;5494;51.796;10.952;2022-11-20T02:02:51;6.15;;;2.30;;
10882;SDS011;5494;51.796;10.952;2022-11-20T02:05:27;3.17;;;2.45;;
10882;SDS011;5494;51.796;10.952;2022-11-20T02:08:03;3.70;;;2.63;;
10882;SDS011;5494;51.796;10.952;2022-11-20T02:10:34;5.93;;;2.40;;
10882;SDS011;5494;51.796;10.952;2022-11-20T02:13:03;4.05;;;2.28;;
10882;SDS011;5494;51.796;10.952;2022-11-20T02:15:49;3.53;;;1.92;;
10882;SDS011;5494;51.796;10.952;2022-11-20T02:18:19;4.63;;;2.33;;
10882;SDS011;5494;51.796;10.952;2022-11-20T02:20:49;3.92;;;2.45;;
10882;SDS011;5494;51.796;10.952;2022-11-20T02:23:28;5.47;;;2.42;;
10882;SDS011;5494;51.796;10.952;2022-11-20T02:26:06;5.47;;;2.30;;
10882;SDS011;5494;51.796;10.952;2022-11-20T02:28:40;4.35;;;2.30;;
10882;SDS011;5494;51.796;10.952;2022-11-20T02:31:09;4.45;;;2.33;;
10882;SDS011;5494;51.796;10.952;2022-11-20T02:33:38;6.65;;;3.10;;
10882;SDS011;5494;51.796;10.952;2022-11-20T02:36:07;5.65;;;3.45;;
10882;SDS011;5494;51.796;10.952;2022-11-20T02:38:41;6.32;;;2.67;;
10882;SDS011;5494;51.796;10.952;2022-11-20T02:41:12;9.07;;;4.65;;
10882;SDS011;5494;51.796;10.952;2022-11-20T02:43:41;10.07;;;4.63;;
10882;SDS011;5494;51.796;10.952;2022-11-20T02:46:09;11.90;;;5.35;;
10882;SDS011;5494;51.796;10.952;2022-11-20T02:48:38;9.63;;;5.57;;
10882;SDS011;5494;51.796;10.952;2022-11-20T02:51:06;14.13;;;6.22;;
10882;SDS011;5494;51.796;10.952;2022-11-20T02:53:34;14.43;;;6.20;;
10882;SDS011;5494;51.796;10.952;2022-11-20T02:56:03;12.50;;;6.00;;
10882;SDS011;5494;51.796;10.952;2022-11-20T02:58:34;11.73;;;5.50;;
10882;SDS011;5494;51.796;10.952;2022-11-20T03:01:03;11.40;;;5.35;;
10882;SDS011;5494;51.796;10.952;2022-11-20T03:03:32;11.57;;;5.25;;
10882;SDS011;5494;51.796;10.952;2022-11-20T03:06:00;12.05;;;5.43;;
10882;SDS011;5494;51.796;10.952;2022-11-20T03:08:28;11.25;;;5.20;;
10882;SDS011;5494;51.796;10.952;2022-11-20T03:11:01;7.50;;;4.53;;
10882;SDS011;5494;51.796;10.952;2022-11-20T03:13:32;12.88;;;5.72;;
10882;SDS011;5494;51.796;10.952;2022-11-20T03:16:09;10.30;;;5.18;;
10882;SDS011;5494;51.796;10.952;2022-11-20T03:18:40;13.35;;;5.28;;
10882;SDS011;5494;51.796;10.952;2022-11-20T03:21:10;9.65;;;4.85;;
10882;SDS011;5494;51.796;10.952;2022-11-20T03:23:40;11.63;;;5.53;;
10882;SDS011;5494;51.796;10.952;2022-11-20T03:26:10;8.45;;;3.80;;
10882;SDS011;5494;51.796;10.952;2022-11-20T03:28:48;6.10;;;2.95;;
10882;SDS011;5494;51.796;10.952;2022-11-20T03:31:20;6.05;;;2.95;;
10882;SDS011;5494;51.796;10.952;2022-11-20T03:33:51;5.63;;;2.88;;
10882;SDS011;5494;51.796;10.952;2022-11-20T03:36:20;5.25;;;2.65;;
10882;SDS011;5494;51.796;10.952;2022-11-20T03:38:49;4.75;;;2.95;;
10882;SDS011;5494;51.796;10.952;2022-11-20T03:41:19;5.93;;;2.92;;
10882;SDS011;5494;51.796;10.952;2022-11-20T03:43:51;7.25;;;2.70;;
10882;SDS011;5494;51.796;10.952;2022-11-20T03:46:21;6.25;;;3.25;;
10882;SDS011;5494;51.796;10.952;2022-11-20T03:48:51;4.05;;;2.80;;
10882;SDS011;5494;51.796;10.952;2022-11-20T03:51:20;5.53;;;3.13;;
10882;SDS011;5494;51.796;10.952;2022-11-20T03:53:52;5.32;;;2.92;;
10882;SDS011;5494;51.796;10.952;2022-11-20T03:56:23;5.53;;;3.40;;
10882;SDS011;5494;51.796;10.952;2022-11-20T03:58:55;5.53;;;3.10;;
10882;SDS011;5494;51.796;10.952;2022-11-20T04:01:25;6.13;;;2.97;;
10882;SDS011;5494;51.796;10.952;2022-11-20T04:03:56;7.72;;;3.83;;
10882;SDS011;5494;51.796;10.952;2022-11-20T04:06:25;7.18;;;3.80;;
10882;SDS011;5494;51.796;10.952;2022-11-20T04:08:57;7.45;;;3.83;;
10882;SDS011;5494;51.796;10.952;2022-11-20T04:11:27;7.10;;;3.78;;
10882;SDS011;5494;51.796;10.952;2022-11-20T04:13:59;8.20;;;3.90;;
10882;SDS011;5494;51.796;10.952;2022-11-20T04:16:30;7.85;;;4.03;;
10882;SDS011;5494;51.796;10.952;2022-11-20T04:19:02;9.15;;;4.75;;
10882;SDS011;5494;51.796;10.952;2022-11-20T04:21:32;11.73;;;4.38;;
10882;SDS011;5494;51.796;10.952;2022-11-20T04:24:01;8.93;;;3.88;;
10882;SDS011;5494;51.796;10.952;2022-11-20T04:26:30;9.10;;;4.80;;
10882;SDS011;5494;51.796;10.952;2022-11-20T04:29:01;9.80;;;4.30;;
10882;SDS011;5494;51.796;10.952;2022-11-20T04:31:31;9.45;;;4.45;;
10882;SDS011;5494;51.796;10.952;2022-11-20T04:34:02;10.73;;;4.82;;
10882;SDS011;5494;51.796;10.952;2022-11-20T04:36:33;10.82;;;4.50;;
10882;SDS011;5494;51.796;10.952;2022-11-20T04:39:02;11.48;;;4.50;;
10882;SDS011;5494;51.796;10.952;2022-11-20T04:41:34;9.32;;;4.68;;
10882;SDS011;5494;51.796;10.952;2022-11-20T04:44:05;8.45;;;4.47;;
10882;SDS011;5494;51.796;10.952;2022-11-20T04:46:34;10.95;;;5.22;;
10882;SDS011;5494;51.796;10.952;2022-11-20T04:49:05;8.73;;;4.40;;
10882;SDS011;5494;51.796;10.952;2022-11-20T04:51:35;9.52;;;4.45;;
10882;SDS011;5494;51.796;10.952;2022-11-20T04:54:03;7.60;;;3.85;;
10882;SDS011;5494;51.796;10.952;2022-11-20T04:56:32;9.73;;;4.20;;
10882;SDS011;5494;51.796;10.952;2022-11-20T04:59:01;6.50;;;3.70;;
10882;SDS011;5494;51.796;10.952;2022-11-20T05:01:31;9.93;;;4.30;;
10882;SDS011;5494;51.796;10.952;2022-11-20T05:04:00;9.80;;;4.00;;
10882;SDS011;5494;51.796;10.952;2022-11-20T05:06:28;7.40;;;3.92;;
10882;SDS011;5494;51.796;10.952;2022-11-20T05:08:57;8.18;;;3.65;;
10882;SDS011;5494;51.796;10.952;2022-11-20T05:11:25;7.03;;;3.67;;
10882;SDS011;5494;51.796;10.952;2022-11-20T05:13:57;8.65;;;3.20;;
10882;SDS011;5494;51.796;10.952;2022-11-20T05:16:27;4.40;;;2.58;;
10882;SDS011;5494;51.796;10.952;2022-11-20T05:18:57;7.18;;;2.55;;
10882;SDS011;5494;51.796;10.952;2022-11-20T05:21:25;4.70;;;2.42;;
10882;SDS011;5494;51.796;10.952;2022-11-20T05:23:54;3.58;;;2.05;;
10882;SDS011;5494;51.796;10.952;2022-11-20T05:26:22;9.35;;;3.13;;
10882;SDS011;5494;51.796;10.952;2022-11-20T05:28:51;7.93;;;4.18;;
10882;SDS011;5494;51.796;10.952;2022-11-20T05:31:20;6.78;;;3.30;;
10882;SDS011;5494;51.796;10.952;2022-11-20T05:33:54;6.47;;;3.20;;
10882;SDS011;5494;51.796;10.952;2022-11-20T05:36:24;7.97;;;3.45;;
10882;SDS011;5494;51.796;10.952;2022-11-20T05:38:53;8.23;;;3.92;;
10882;SDS011;5494;51.796;10.952;2022-11-20T05:41:27;8.88;;;4.75;;
10882;SDS011;5494;51.796;10.952;2022-11-20T05:43:56;9.18;;;4.38;;
10882;SDS011;5494;51.796;10.952;2022-11-20T05:46:25;7.28;;;3.47;;
10882;SDS011;5494;51.796;10.952;2022-11-20T05:48:57;8.60;;;4.05;;
10882;SDS011;5494;51.796;10.952;2022-11-20T05:51:26;7.45;;;3.60;;
10882;SDS011;5494;51.796;10.952;2022-11-20T05:53:56;10.73;;;3.78;;
10882;SDS011;5494;51.796;10.952;2022-11-20T05:56:25;6.55;;;3.00;;
10882;SDS011;5494;51.796;10.952;2022-11-20T05:58:53;7.35;;;3.25;;
10882;SDS011;5494;51.796;10.952;2022-11-20T06:01:23;6.80;;;3.55;;
10882;SDS011;5494;51.796;10.952;2022-11-20T06:03:53;7.22;;;3.35;;
10882;SDS011;5494;51.796;10.952;2022-11-20T06:06:23;6.03;;;3.15;;
10882;SDS011;5494;51.796;10.952;2022-11-20T06:08:52;5.97;;;3.40;;
10882;SDS011;5494;51.796;10.952;2022-11-20T06:11:22;6.85;;;3.25;;
10882;SDS011;5494;51.796;10.952;2022-11-20T06:13:50;8.48;;;3.58;;
10882;SDS011;5494;51.796;10.952;2022-11-20T06:16:19;7.45;;;3.90;;
10882;SDS011;5494;51.796;10.952;2022-11-20T06:18:48;9.00;;;3.60;;
10882;SDS011;5494;51.796;10.952;2022-11-20T06:21:17;9.18;;;3.42;;
10882;SDS011;5494;51.796;10.952;2022-11-20T06:23:49;6.43;;;3.20;;
10882;SDS011;5494;51.796;10.952;2022-11-20T06:26:21;7.82;;;3.53;;
10882;SDS011;5494;51.796;10.952;2022-11-20T06:28:52;5.45;;;3.10;;
10882;SDS011;5494;51.796;10.952;2022-11-20T06:31:23;5.60;;;3.22;;
10882;SDS011;5494;51.796;10.952;2022-11-20T06:33:53;6.75;;;3.63;;
10882;SDS011;5494;51.796;10.952;2022-11-20T06:36:22;6.35;;;3.25;;
10882;SDS011;5494;51.796;10.952;2022-11-20T06:38:52;7.15;;;3.17;;
10882;SDS011;5494;51.796;10.952;2022-11-20T06:41:21;6.72;;;3.50;;
10882;SDS011;5494;51.796;10.952;2022-11-20T06:43:50;7.00;;;3.83;;
10882;SDS011;5494;51.796;10.952;2022-11-20T06:46:19;6.00;;;3.33;;
10882;SDS011;5494;51.796;10.952;2022-11-20T06:48:49;8.05;;;2.97;;
10882;SDS011;5494;51.796;10.952;2022-11-20T06:51:18;6.85;;;3.45;;
10882;SDS011;5494;51.796;10.952;2022-11-20T06:53:47;6.93;;;2.88;;
10882;SDS011;5494;51.796;10.952;2022-11-20T06:56:17;6.68;;;3.40;;
10882;SDS011;5494;51.796;10.952;2022-11-20T06:58:46;6.65;;;3.75;;
10882;SDS011;5494;51.796;10.952;2022-11-20T07:01:14;9.13;;;3.40;;
10882;SDS011;5494;51.796;10.952;2022-11-20T07:03:44;4.70;;;2.50;;
10882;SDS011;5494;51.796;10.952;2022-11-20T07:06:19;8.65;;;3.33;;
10882;SDS011;5494;51.796;10.952;2022-11-20T07:08:49;6.78;;;3.35;;
10882;SDS011;5494;51.796;10.952;2022-11-20T07:11:20;4.20;;;2.75;;
10882;SDS011;5494;51.796;10.952;2022-11-20T07:13:48;6.90;;;3.63;;
10882;SDS011;5494;51.796;10.952;2022-11-20T07:16:17;8.35;;;3.42;;
10882;SDS011;5494;51.796;10.952;2022-11-20T07:18:45;6.00;;;3.20;;
10882;SDS011;5494;51.796;10.952;2022-11-20T07:21:16;7.95;;;3.78;;
10882;SDS011;5494;51.796;10.952;2022-11-20T07:23:45;6.53;;;3.50;;
10882;SDS011;5494;51.796;10.952;2022-11-20T07:26:14;9.40;;;5.03;;
10882;SDS011;5494;51.796;10.952;2022-11-20T07:28:45;11.27;;;6.30;;
10882;SDS011;5494;51.796;10.952;2022-11-20T07:31:13;13.10;;;7.38;;
10882;SDS011;5494;51.796;10.952;2022-11-20T07:33:45;18.58;;;9.20;;
10882;SDS011;5494;51.796;10.952;2022-11-20T07:36:13;14.10;;;7.97;;
10882;SDS011;5494;51.796;10.952;2022-11-20T07:38:42;11.38;;;6.30;;
10882;SDS011;5494;51.796;10.952;2022-11-20T07:41:11;9.52;;;5.40;;
10882;SDS011;5494;51.796;10.952;2022-11-20T07:43:39;9.73;;;5.22;;
10882;SDS011;5494;51.796;10.952;2022-11-20T07:46:09;9.80;;;5.25;;
10882;SDS011;5494;51.796;10.952;2022-11-20T07:48:38;8.38;;;5.20;;
10882;SDS011;5494;51.796;10.952;2022-11-20T07:51:07;8.25;;;4.35;;
10882;SDS011;5494;51.796;10.952;2022-11-20T07:53:35;8.15;;;4.55;;
10882;SDS011;5494;51.796;10.952;2022-11-20T07:56:04;6.60;;;4.00;;
10882;SDS011;5494;51.796;10.952;2022-11-20T07:58:33;6.75;;;3.75;;
10882;SDS011;5494;51.796;10.952;2022-11-20T08:01:02;4.90;;;2.90;;
10882;SDS011;5494;51.796;10.952;2022-11-20T08:03:33;4.57;;;2.95;;
10882;SDS011;5494;51.796;10.952;2022-11-20T08:06:04;3.92;;;2.25;;
10882;SDS011;5494;51.796;10.952;2022-11-20T08:08:33;4.25;;;2.58;;
10882;SDS011;5494;51.796;10.952;2022-11-20T08:11:08;7.30;;;4.43;;
10882;SDS011;5494;51.796;10.952;2022-11-20T08:13:53;11.35;;;5.88;;
10882;SDS011;5494;51.796;10.952;2022-11-20T08:16:40;12.23;;;6.23;;
10882;SDS011;5494;51.796;10.952;2022-11-20T08:19:13;7.23;;;4.83;;
10882;SDS011;5494;51.796;10.952;2022-11-20T08:21:43;5.93;;;4.40;;
10882;SDS011;5494;51.796;10.952;2022-11-20T08:24:12;4.97;;;3.47;;
10882;SDS011;5494;51.796;10.952;2022-11-20T08:26:41;3.83;;;2.90;;
10882;SDS011;5494;51.796;10.952;2022-11-20T08:29:10;4.27;;;3.07;;
10882;SDS011;5494;51.796;10.952;2022-11-20T08:31:38;3.40;;;2.27;;
10882;SDS011;5494;51.796;10.952;2022-11-20T08:34:07;3.10;;;2.20;;
10882;SDS011;5494;51.796;10.952;2022-11-20T08:36:43;4.20;;;2.90;;
10882;SDS011;5494;51.796;10.952;2022-11-20T08:39:11;4.10;;;3.07;;
10882;SDS011;5494;51.796;10.952;2022-11-20T08:41:41;3.87;;;2.60;;
10882;SDS011;5494;51.796;10.952;2022-11-20T08:44:10;5.50;;;3.03;;
10882;SDS011;5494;51.796;10.952;2022-11-20T08:46:39;4.77;;;3.33;;
10882;SDS011;5494;51.796;10.952;2022-11-20T08:49:11;5.77;;;3.93;;
10882;SDS011;5494;51.796;10.952;2022-11-20T08:51:42;6.30;;;4.63;;
10882;SDS011;5494;51.796;10.952;2022-11-20T08:54:11;5.27;;;4.20;;
10882;SDS011;5494;51.796;10.952;2022-11-20T08:56:40;6.80;;;4.20;;
10882;SDS011;5494;51.796;10.952;2022-11-20T08:59:08;6.60;;;3.70;;
10882;SDS011;5494;51.796;10.952;2022-11-20T09:01:56;6.93;;;4.37;;
10882;SDS011;5494;51.796;10.952;2022-11-20T09:04:25;7.77;;;4.90;;
10882;SDS011;5494;51.796;10.952;2022-11-20T09:06:55;7.90;;;5.00;;
10882;SDS011;5494;51.796;10.952;2022-11-20T09:09:24;6.43;;;4.17;;
10882;SDS011;5494;51.796;10.952;2022-11-20T09:11:52;5.80;;;4.07;;
10882;SDS011;5494;51.796;10.952;2022-11-20T09:14:21;7.60;;;4.37;;
10882;SDS011;5494;51.796;10.952;2022-11-20T09:16:51;7.40;;;4.37;;
10882;SDS011;5494;51.796;10.952;2022-11-20T09:19:19;7.93;;;5.00;;
10882;SDS011;5494;51.796;10.952;2022-11-20T09:22:05;5.77;;;3.83;;
10882;SDS011;5494;51.796;10.952;2022-11-20T09:24:33;4.77;;;3.70;;
10882;SDS011;5494;51.796;10.952;2022-11-20T09:27:02;5.93;;;3.73;;
10882;SDS011;5494;51.796;10.952;2022-11-20T09:29:32;6.37;;;4.30;;
10882;SDS011;5494;51.796;10.952;2022-11-20T09:32:01;5.73;;;3.50;;
10882;SDS011;5494;51.796;10.952;2022-11-20T09:34:30;3.23;;;2.80;;
10882;SDS011;5494;51.796;10.952;2022-11-20T09:36:58;2.97;;;2.33;;
10882;SDS011;5494;51.796;10.952;2022-11-20T09:39:33;6.83;;;4.70;;
10882;SDS011;5494;51.796;10.952;2022-11-20T09:42:12;5.20;;;3.53;;
10882;SDS011;5494;51.796;10.952;2022-11-20T09:45:12;4.47;;;3.23;;
10882;SDS011;5494;51.796;10.952;2022-11-20T09:47:54;3.03;;;2.33;;
10882;SDS011;5494;51.796;10.952;2022-11-20T09:50:43;3.53;;;2.40;;
10882;SDS011;5494;51.796;10.952;2022-11-20T09:53:20;15.57;;;8.30;;
10882;SDS011;5494;51.796;10.952;2022-11-20T09:56:03;30.53;;;14.80;;
10882;SDS011;5494;51.796;10.952;2022-11-20T09:58:33;12.53;;;7.10;;
10882;SDS011;5494;51.796;10.952;2022-11-20T10:01:10;3.77;;;2.40;;
10882;SDS011;5494;51.796;10.952;2022-11-20T10:03:50;2.70;;;2.10;;
10882;SDS011;5494;51.796;10.952;2022-11-20T10:06:28;2.83;;;2.20;;
10882;SDS011;5494;51.796;10.952;2022-11-20T10:09:02;3.70;;;2.70;;
10882;SDS011;5494;51.796;10.952;2022-11-20T10:11:51;4.97;;;3.17;;
10882;SDS011;5494;51.796;10.952;2022-11-20T10:14:36;3.30;;;2.63;;
10882;SDS011;5494;51.796;10.952;2022-11-20T10:17:26;3.53;;;2.57;;
10882;SDS011;5494;51.796;10.952;2022-11-20T10:20:24;4.53;;;3.17;;
10882;SDS011;5494;51.796;10.952;2022-11-20T10:23:14;3.70;;;2.97;;
10882;SDS011;5494;51.796;10.952;2022-11-20T10:26:13;4.00;;;3.07;;
10882;SDS011;5494;51.796;10.952;2022-11-20T10:28:56;4.30;;;2.87;;
10882;SDS011;5494;51.796;10.952;2022-11-20T10:31:40;4.83;;;3.47;;
10882;SDS011;5494;51.796;10.952;2022-11-20T10:34:16;5.23;;;3.00;;
10882;SDS011;5494;51.796;10.952;2022-11-20T10:36:53;4.30;;;2.80;;
10882;SDS011;5494;51.796;10.952;2022-11-20T10:39:28;3.10;;;2.47;;
10882;SDS011;5494;51.796;10.952;2022-11-20T10:42:07;7.60;;;2.80;;
10882;SDS011;5494;51.796;10.952;2022-11-20T10:44:43;2.90;;;2.20;;
10882;SDS011;5494;51.796;10.952;2022-11-20T10:47:32;4.03;;;2.10;;
10882;SDS011;5494;51.796;10.952;2022-11-20T10:50:02;2.90;;;2.20;;
10882;SDS011;5494;51.796;10.952;2022-11-20T10:52:39;2.87;;;2.30;;
10882;SDS011;5494;51.796;10.952;2022-11-20T10:55:24;2.73;;;2.30;;
10882;SDS011;5494;51.796;10.952;2022-11-20T10:58:08;3.57;;;2.60;;
10882;SDS011;5494;51.796;10.952;2022-11-20T11:00:43;3.00;;;2.33;;
10882;SDS011;5494;51.796;10.952;2022-11-20T11:03:16;3.60;;;3.03;;
10882;SDS011;5494;51.796;10.952;2022-11-20T11:05:54;3.67;;;3.00;;
10882;SDS011;5494;51.796;10.952;2022-11-20T11:08:35;3.00;;;2.70;;
10882;SDS011;5494;51.796;10.952;2022-11-20T11:11:10;10.43;;;3.20;;
10882;SDS011;5494;51.796;10.952;2022-11-20T11:13:49;7.03;;;3.33;;
10882;SDS011;5494;51.796;10.952;2022-11-20T11:16:23;6.13;;;3.77;;
10882;SDS011;5494;51.796;10.952;2022-11-20T11:19:03;6.50;;;2.40;;
10882;SDS011;5494;51.796;10.952;2022-11-20T11:21:33;6.33;;;2.80;;
10882;SDS011;5494;51.796;10.952;2022-11-20T11:24:03;4.03;;;2.67;;
10882;SDS011;5494;51.796;10.952;2022-11-20T11:26:53;2.80;;;1.30;;
10882;SDS011;5494;51.796;10.952;2022-11-20T11:29:26;1.07;;;0.77;;
10882;SDS011;5494;51.796;10.952;2022-11-20T11:32:04;1.30;;;0.90;;
10882;SDS011;5494;51.796;10.952;2022-11-20T11:34:35;2.87;;;2.00;;
10882;SDS011;5494;51.796;10.952;2022-11-20T11:37:04;2.13;;;1.27;;
10882;SDS011;5494;51.796;10.952;2022-11-20T11:39:41;1.53;;;1.30;;
10882;SDS011;5494;51.796;10.952;2022-11-20T11:42:16;2.23;;;0.90;;
10882;SDS011;5494;51.796;10.952;2022-11-20T11:44:47;2.30;;;1.27;;
10882;SDS011;5494;51.796;10.952;2022-11-20T11:47:37;2.37;;;1.43;;
10882;SDS011;5494;51.796;10.952;2022-11-20T11:50:20;0.87;;;0.70;;
10882;SDS011;5494;51.796;10.952;2022-11-20T11:52:59;2.10;;;1.10;;
10882;SDS011;5494;51.796;10.952;2022-11-20T11:55:38;1.70;;;1.10;;
10882;SDS011;5494;51.796;10.952;2022-11-20T11:58:14;2.47;;;1.37;;
10882;SDS011;5494;51.796;10.952;2022-11-20T12:00:56;2.67;;;1.53;;
10882;SDS011;5494;51.796;10.952;2022-11-20T12:03:34;2.83;;;1.40;;
10882;SDS011;5494;51.796;10.952;2022-11-20T12:06:05;3.63;;;1.50;;
10882;SDS011;5494;51.796;10.952;2022-11-20T12:08:42;4.90;;;1.60;;
10882;SDS011;5494;51.796;10.952;2022-11-20T12:11:19;4.67;;;2.17;;
10882;SDS011;5494;51.796;10.952;2022-11-20T12:14:00;7.43;;;3.27;;
10882;SDS011;5494;51.796;10.952;2022-11-20T12:16:39;6.63;;;3.60;;
10882;SDS011;5494;51.796;10.952;2022-11-20T12:19:11;5.23;;;2.40;;
10882;SDS011;5494;51.796;10.952;2022-11-20T12:21:45;2.43;;;1.77;;
10882;SDS011;5494;51.796;10.952;2022-11-20T12:24:37;1.77;;;0.70;;
10882;SDS011;5494;51.796;10.952;2022-11-20T12:27:39;4.07;;;1.43;;
10882;SDS011;5494;51.796;10.952;2022-11-20T12:30:39;1.57;;;0.90;;
10882;SDS011;5494;51.796;10.952;2022-11-20T12:33:34;4.13;;;1.40;;
10882;SDS011;5494;51.796;10.952;2022-11-20T12:36:21;2.97;;;1.20;;
10882;SDS011;5494;51.796;10.952;2022-11-20T12:39:13;3.47;;;1.47;;
10882;SDS011;5494;51.796;10.952;2022-11-20T12:42:03;1.90;;;1.20;;
10882;SDS011;5494;51.796;10.952;2022-11-20T12:45:20;2.20;;;0.93;;
10882;SDS011;5494;51.796;10.952;2022-11-20T12:52:04;0.80;;;0.70;;
10882;SDS011;5494;51.796;10.952;2022-11-20T12:54:55;0.77;;;0.70;;
10882;SDS011;5494;51.796;10.952;2022-11-20T12:57:49;1.60;;;1.13;;
10882;SDS011;5494;51.796;10.952;2022-11-20T13:00:26;2.97;;;1.83;;
10882;SDS011;5494;51.796;10.952;2022-11-20T13:03:16;2.93;;;2.23;;
10882;SDS011;5494;51.796;10.952;2022-11-20T13:06:14;3.55;;;2.70;;
10882;SDS011;5494;51.796;10.952;2022-11-20T13:08:47;3.55;;;2.65;;
10882;SDS011;5494;51.796;10.952;2022-11-20T13:11:25;5.70;;;3.30;;
10882;SDS011;5494;51.796;10.952;2022-11-20T13:14:05;5.17;;;3.73;;
10882;SDS011;5494;51.796;10.952;2022-11-20T13:16:48;4.97;;;3.13;;
10882;SDS011;5494;51.796;10.952;2022-11-20T13:19:31;5.25;;;3.30;;
10882;SDS011;5494;51.796;10.952;2022-11-20T13:22:01;5.13;;;3.10;;
10882;SDS011;5494;51.796;10.952;2022-11-20T13:24:31;5.75;;;3.42;;
10882;SDS011;5494;51.796;10.952;2022-11-20T13:27:04;7.60;;;4.22;;
10882;SDS011;5494;51.796;10.952;2022-11-20T13:29:58;5.40;;;3.35;;
10882;SDS011;5494;51.796;10.952;2022-11-20T13:32:47;5.82;;;4.03;;
10882;SDS011;5494;51.796;10.952;2022-11-20T13:35:27;5.37;;;3.47;;
10882;SDS011;5494;51.796;10.952;2022-11-20T13:38:00;6.25;;;3.58;;
10882;SDS011;5494;51.796;10.952;2022-11-20T13:40:34;4.75;;;3.42;;
10882;SDS011;5494;51.796;10.952;2022-11-20T13:43:15;4.90;;;3.70;;
10882;SDS011;5494;51.796;10.952;2022-11-20T13:45:54;6.73;;;4.90;;
10882;SDS011;5494;51.796;10.952;2022-11-20T13:48:26;7.88;;;4.85;;
10882;SDS011;5494;51.796;10.952;2022-11-20T13:51:02;6.45;;;4.10;;
10882;SDS011;5494;51.796;10.952;2022-11-20T13:53:47;8.85;;;5.82;;
10882;SDS011;5494;51.796;10.952;2022-11-20T13:56:37;7.22;;;5.15;;
10882;SDS011;5494;51.796;10.952;2022-11-20T13:59:27;6.40;;;4.47;;
10882;SDS011;5494;51.796;10.952;2022-11-20T14:02:10;6.15;;;4.50;;
10882;SDS011;5494;51.796;10.952;2022-11-20T14:04:42;7.28;;;4.80;;
10882;SDS011;5494;51.796;10.952;2022-11-20T14:07:14;17.92;;;11.05;;
10882;SDS011;5494;51.796;10.952;2022-11-20T14:09:49;16.75;;;11.75;;
10882;SDS011;5494;51.796;10.952;2022-11-20T14:12:22;18.50;;;11.57;;
10882;SDS011;5494;51.796;10.952;2022-11-20T14:14:56;18.13;;;11.27;;
10882;SDS011;5494;51.796;10.952;2022-11-20T14:17:29;13.63;;;9.40;;
10882;SDS011;5494;51.796;10.952;2022-11-20T14:20:00;10.50;;;6.57;;
10882;SDS011;5494;51.796;10.952;2022-11-20T14:22:32;11.90;;;7.75;;
10882;SDS011;5494;51.796;10.952;2022-11-20T14:25:02;12.73;;;8.33;;
10882;SDS011;5494;51.796;10.952;2022-11-20T14:27:37;10.30;;;6.63;;
10882;SDS011;5494;51.796;10.952;2022-11-20T14:30:12;6.75;;;4.95;;
10882;SDS011;5494;51.796;10.952;2022-11-20T14:32:44;8.13;;;5.10;;
10882;SDS011;5494;51.796;10.952;2022-11-20T14:35:20;7.35;;;5.35;;
10882;SDS011;5494;51.796;10.952;2022-11-20T14:37:53;9.88;;;5.65;;
10882;SDS011;5494;51.796;10.952;2022-11-20T14:40:23;7.60;;;4.90;;
10882;SDS011;5494;51.796;10.952;2022-11-20T14:42:58;9.43;;;5.57;;
10882;SDS011;5494;51.796;10.952;2022-11-20T14:45:27;14.20;;;8.63;;
10882;SDS011;5494;51.796;10.952;2022-11-20T14:47:56;17.00;;;10.18;;
10882;SDS011;5494;51.796;10.952;2022-11-20T14:50:28;14.50;;;9.57;;
10882;SDS011;5494;51.796;10.952;2022-11-20T14:52:57;17.20;;;10.57;;
10882;SDS011;5494;51.796;10.952;2022-11-20T14:55:29;16.45;;;10.55;;
10882;SDS011;5494;51.796;10.952;2022-11-20T14:58:02;15.38;;;10.30;;
10882;SDS011;5494;51.796;10.952;2022-11-20T15:00:33;19.13;;;10.70;;
10882;SDS011;5494;51.796;10.952;2022-11-20T15:03:13;23.30;;;12.00;;
10882;SDS011;5494;51.796;10.952;2022-11-20T15:05:45;24.05;;;14.57;;
10882;SDS011;5494;51.796;10.952;2022-11-20T15:08:15;35.50;;;18.23;;
10882;SDS011;5494;51.796;10.952;2022-11-20T15:10:48;35.08;;;17.80;;
10882;SDS011;5494;51.796;10.952;2022-11-20T15:13:23;36.78;;;20.48;;
10882;SDS011;5494;51.796;10.952;2022-11-20T15:15:57;40.25;;;20.40;;
10882;SDS011;5494;51.796;10.952;2022-11-20T15:18:32;40.85;;;21.30;;
10882;SDS011;5494;51.796;10.952;2022-11-20T15:21:08;28.00;;;17.08;;
10882;SDS011;5494;51.796;10.952;2022-11-20T15:23:40;22.40;;;14.25;;
10882;SDS011;5494;51.796;10.952;2022-11-20T15:26:09;21.75;;;12.95;;
10882;SDS011;5494;51.796;10.952;2022-11-20T15:28:47;20.65;;;12.45;;